Time;durP1;ratioP1;P1;durP2;ratioP2;P2;SDS_P1;SDS_P2;PMS_P1;PMS_P2;Temp;Humidity;BMP_temperature;BMP_pressure;BME280_temperature;BME280_humidity;BME280_pressure;Samples;Min_cycle;Max_cycle;Signal;HPM_P1;HPM_P2
2021/11/02 00:00:39;;;;;;;6.13;1.80;;;7.60;1.00;;;;;;5074571;28;20209;-62
2021/11/02 00:03:07;;;;;;;5.77;1.93;;;7.60;1.00;;;;;;5074560;28;20223;-62
2021/11/02 00:05:35;;;;;;;4.40;1.83;;;7.60;1.00;;;;;;5074523;28;20212;-60
2021/11/02 00:08:02;;;;;;;9.33;1.93;;;7.60;1.00;;;;;;5074478;28;20212;-62
2021/11/02 00:10:29;;;;;;;6.87;1.93;;;7.60;1.00;;;;;;5074633;28;20296;-62
2021/11/02 00:12:57;;;;;;;7.60;2.20;;;7.50;1.00;;;;;;5074159;28;20232;-62
2021/11/02 00:15:30;;;;;;;5.70;2.33;;;7.40;1.00;;;;;;5073470;28;20623;-61
2021/11/02 00:17:59;;;;;;;4.43;1.90;;;7.40;1.00;;;;;;5073636;28;20208;-61
2021/11/02 00:20:26;;;;;;;7.60;2.13;;;7.40;1.00;;;;;;5074138;28;20205;-61
2021/11/02 00:22:56;;;;;;;7.17;2.20;;;7.30;2.00;;;;;;5073802;28;20724;-62
2021/11/02 00:25:24;;;;;;;6.17;1.97;;;7.30;19.80;;;;;;5072094;28;20205;-61
2021/11/02 00:27:51;;;;;;;7.37;2.27;;;7.30;85.30;;;;;;5073360;28;20205;-62
2021/11/02 00:30:20;;;;;;;7.87;3.50;;;7.30;99.90;;;;;;5074340;28;20205;-61
2021/11/02 00:32:50;;;;;;;5.70;3.40;;;7.30;99.90;;;;;;5073099;28;20232;-62
2021/11/02 00:35:18;;;;;;;7.50;3.37;;;7.30;99.90;;;;;;5073598;28;20201;-62
2021/11/02 00:37:45;;;;;;;7.07;2.23;;;7.30;99.90;;;;;;5072871;28;20726;-62
2021/11/02 00:40:14;;;;;;;5.47;2.17;;;7.30;99.90;;;;;;5073836;28;20216;-61
2021/11/02 00:42:49;;;;;;;4.90;2.03;;;7.40;99.90;;;;;;5072113;28;20225;-61
2021/11/02 00:45:22;;;;;;;6.80;2.27;;;7.40;99.90;;;;;;5072341;28;20208;-62
2021/11/02 00:47:52;;;;;;;10.30;2.47;;;7.40;99.90;;;;;;5072639;28;20209;-62
2021/11/02 00:50:18;;;;;;;8.50;2.03;;;7.50;99.90;;;;;;5072932;28;20251;-62
2021/11/02 00:52:45;;;;;;;8.80;1.90;;;7.50;99.90;;;;;;5073139;28;20641;-62
2021/11/02 00:55:12;;;;;;;8.33;1.90;;;7.60;99.90;;;;;;5072072;28;20695;-62
2021/11/02 00:57:39;;;;;;;4.33;2.30;;;7.60;99.90;;;;;;5073518;28;20216;-62
2021/11/02 01:00:08;;;;;;;6.30;2.60;;;7.60;99.90;;;;;;5073425;28;20224;-61
2021/11/02 01:02:35;;;;;;;7.20;2.47;;;7.70;99.90;;;;;;5072125;28;20731;-61
2021/11/02 01:05:04;;;;;;;8.90;2.40;;;7.70;99.90;;;;;;5071961;28;20696;-62
2021/11/02 01:07:31;;;;;;;7.70;1.93;;;7.80;99.90;;;;;;5073512;28;20209;-62
2021/11/02 01:10:00;;;;;;;8.27;1.90;;;7.90;99.90;;;;;;5073282;28;20205;-62
2021/11/02 01:12:27;;;;;;;5.80;1.90;;;7.90;99.90;;;;;;5073140;28;20727;-62
2021/11/02 01:14:53;;;;;;;4.80;2.00;;;8.00;99.90;;;;;;5072960;28;20626;-62
2021/11/02 01:17:20;;;;;;;5.40;1.83;;;8.00;97.10;;;;;;5072986;28;20206;-61
2021/11/02 01:19:47;;;;;;;7.57;2.13;;;8.10;87.20;;;;;;5073159;28;20205;-62
2021/11/02 01:22:15;;;;;;;5.50;1.80;;;8.10;68.70;;;;;;5072292;28;20219;-62
2021/11/02 01:24:41;;;;;;;4.77;1.97;;;8.10;52.40;;;;;;5072637;28;20214;-62
2021/11/02 01:27:08;;;;;;;5.30;1.73;;;8.10;44.50;;;;;;5072068;28;20200;-62
2021/11/02 01:29:35;;;;;;;6.87;2.07;;;8.00;37.70;;;;;;5072413;28;20209;-62
2021/11/02 01:32:01;;;;;;;4.90;2.00;;;8.00;40.70;;;;;;5071883;28;20638;-62
2021/11/02 01:34:28;;;;;;;6.27;2.10;;;8.00;41.00;;;;;;5072876;28;20263;-62
2021/11/02 01:36:55;;;;;;;4.63;1.73;;;8.10;39.50;;;;;;5072830;28;20214;-62
2021/11/02 01:39:23;;;;;;;5.50;1.93;;;8.10;41.40;;;;;;5072588;28;20266;-62
2021/11/02 01:41:50;;;;;;;7.30;1.90;;;8.10;40.00;;;;;;5072305;28;20323;-62
2021/11/02 01:44:17;;;;;;;8.43;1.60;;;8.10;32.20;;;;;;5071627;28;20688;-62
2021/11/02 01:46:44;;;;;;;7.80;2.23;;;8.20;36.50;;;;;;5072084;28;20210;-62
2021/11/02 01:49:12;;;;;;;3.10;1.53;;;8.20;18.60;;;;;;5072694;28;20201;-62
2021/11/02 01:51:40;;;;;;;9.80;1.87;;;8.20;12.60;;;;;;5072396;28;20637;-61
2021/11/02 01:54:07;;;;;;;4.60;2.00;;;8.30;3.80;;;;;;5071985;28;20206;-62
2021/11/02 01:56:36;;;;;;;8.63;1.90;;;8.30;4.00;;;;;;5071178;28;20579;-62
2021/11/02 01:59:04;;;;;;;9.87;2.10;;;8.30;3.40;;;;;;5071815;28;20214;-61
2021/11/02 02:01:37;;;;;;;3.93;1.80;;;8.30;14.50;;;;;;5072154;28;20217;-62
2021/11/02 02:04:12;;;;;;;5.60;2.00;;;8.20;1.00;;;;;;5072108;28;20626;-61
2021/11/02 02:06:49;;;;;;;5.70;1.67;;;8.20;1.00;;;;;;5070752;28;20291;-62
2021/11/02 02:09:22;;;;;;;8.57;2.20;;;8.20;1.00;;;;;;5071153;28;20205;-62
2021/11/02 02:12:06;;;;;;;4.97;2.10;;;8.20;1.00;;;;;;5071835;28;20237;-62
2021/11/02 02:14:40;;;;;;;5.00;1.80;;;8.10;1.00;;;;;;5072083;28;20254;-62
2021/11/02 02:17:15;;;;;;;6.30;2.10;;;8.10;3.20;;;;;;5072161;28;20200;-62
2021/11/02 02:19:47;;;;;;;5.90;1.80;;;8.10;2.40;;;;;;5070897;28;20215;-62
2021/11/02 02:22:30;;;;;;;5.40;2.20;;;8.10;1.00;;;;;;5071959;28;20588;-60
2021/11/02 02:25:17;;;;;;;6.80;2.10;;;8.10;1.00;;;;;;5071579;28;20204;-60
2021/11/02 02:28:01;;;;;;;6.23;1.90;;;8.00;1.00;;;;;;5071982;28;20751;-60
2021/11/02 02:30:30;;;;;;;6.10;2.10;;;8.00;3.30;;;;;;5071798;28;20259;-59
2021/11/02 02:32:58;;;;;;;5.47;1.80;;;8.00;3.20;;;;;;5071789;28;20636;-61
2021/11/02 02:35:27;;;;;;;5.67;1.80;;;8.00;6.20;;;;;;5071717;28;20209;-61
2021/11/02 02:37:55;;;;;;;7.87;2.23;;;8.00;15.10;;;;;;5071976;28;20583;-62
2021/11/02 02:40:24;;;;;;;5.20;1.73;;;8.00;18.20;;;;;;5071873;28;20295;-60
2021/11/02 02:42:52;;;;;;;5.60;2.27;;;8.00;20.30;;;;;;5071635;28;20314;-60
2021/11/02 02:45:21;;;;;;;7.13;2.10;;;8.00;21.30;;;;;;5071047;28;20208;-60
2021/11/02 02:47:49;;;;;;;4.40;1.70;;;8.10;14.40;;;;;;5071281;28;20201;-59
2021/11/02 02:50:18;;;;;;;4.33;1.87;;;8.10;10.00;;;;;;5071927;28;20231;-60
2021/11/02 02:52:46;;;;;;;2.73;1.60;;;8.10;3.60;;;;;;5071335;28;20275;-60
2021/11/02 02:55:15;;;;;;;4.80;1.80;;;8.10;3.60;;;;;;5071377;28;20206;-59
2021/11/02 02:57:44;;;;;;;3.07;1.87;;;8.10;3.40;;;;;;5071860;28;20583;-59
2021/11/02 03:00:12;;;;;;;6.00;2.10;;;8.10;14.50;;;;;;5071989;28;20217;-60
2021/11/02 03:02:43;;;;;;;5.57;2.00;;;8.10;3.50;;;;;;5071899;28;20274;-59
2021/11/02 03:05:13;;;;;;;8.30;1.83;;;8.10;3.50;;;;;;5070772;28;20218;-59
2021/11/02 03:07:40;;;;;;;2.73;2.20;;;8.10;3.60;;;;;;5070396;28;20689;-60
2021/11/02 03:10:08;;;;;;;11.90;2.07;;;8.10;4.40;;;;;;5069890;28;20213;-61
2021/11/02 03:12:37;;;;;;;5.67;2.20;;;8.10;3.50;;;;;;5070490;28;20236;-62
2021/11/02 03:15:23;;;;;;;4.40;1.80;;;8.10;3.60;;;;;;5070652;28;20210;-62
2021/11/02 03:18:02;;;;;;;4.53;2.03;;;8.00;3.50;;;;;;5070543;28;20207;-61
2021/11/02 03:48:45;;;;;;;6.00;2.10;;;7.50;59.20;;;;;;5074935;28;20208;-61
2021/11/02 03:51:19;;;;;;;3.13;1.80;;;7.40;99.90;;;;;;5074049;28;20223;-61
2021/11/02 03:56:42;;;;;;;3.27;2.33;;;7.40;99.90;;;;;;5074386;28;20204;-62
2021/11/02 03:59:35;;;;;;;5.43;2.13;;;7.30;99.90;;;;;;5074149;28;20202;-62
2021/11/02 04:24:56;;;;;;;6.13;2.27;;;6.90;1.00;;;;;;5074069;28;20204;-62
2021/11/02 04:27:39;;;;;;;6.00;2.30;;;6.90;1.00;;;;;;5073594;28;20205;-62
2021/11/02 04:30:29;;;;;;;8.23;2.40;;;6.90;1.00;;;;;;5072807;28;20209;-62
2021/11/02 04:33:18;;;;;;;6.73;2.50;;;6.80;1.00;;;;;;5073224;28;20748;-62
2021/11/02 05:09:54;;;;;;;5.43;2.17;;;6.60;1.00;;;;;;5072554;28;20288;-62
2021/11/02 05:51:35;;;;;;;8.17;1.93;;;6.60;99.90;;;;;;5069243;28;20216;-62
2021/11/02 05:54:21;;;;;;;4.83;2.10;;;6.60;99.90;;;;;;5072173;28;20383;-65
2021/11/02 05:56:51;;;;;;;5.07;2.13;;;6.60;99.90;;;;;;5071904;28;20197;-65
2021/11/02 05:59:27;;;;;;;2.37;2.00;;;7.00;1.00;;;;;;5072196;28;20647;-65
2021/11/02 06:02:00;;;;;;;4.57;1.70;;;7.10;1.00;;;;;;5072107;28;20224;-65
2021/11/02 06:07:48;;;;;;;3.83;1.60;;;7.00;99.90;;;;;;5071318;28;20286;-61
2021/11/02 06:10:48;;;;;;;6.10;2.00;;;6.90;99.90;;;;;;5071951;28;20204;-61
2021/11/02 06:27:51;;;;;;;3.43;1.67;;;6.60;20.10;;;;;;5045843;28;20347;-55
2021/11/02 06:30:21;;;;;;;6.03;1.93;;;6.60;15.00;;;;;;5051356;28;20212;-55
2021/11/02 06:32:51;;;;;;;4.23;2.00;;;6.50;36.80;;;;;;5050809;28;20690;-60
2021/11/02 06:35:25;;;;;;;2.23;1.60;;;6.50;15.20;;;;;;5050383;28;20205;-56
2021/11/02 06:38:12;;;;;;;3.27;2.00;;;6.50;1.80;;;;;;5069616;28;20209;-57
2021/11/02 06:44:02;;;;;;;5.47;2.20;;;6.50;1.00;;;;;;5071312;28;20220;-59
2021/11/02 06:49:46;;;;;;;6.07;2.20;;;6.50;1.00;;;;;;5071215;28;20204;-61
2021/11/02 06:52:42;;;;;;;3.40;2.23;;;6.60;1.00;;;;;;5071211;28;20301;-60
2021/11/02 06:55:38;;;;;;;4.00;2.00;;;6.60;1.00;;;;;;5069800;28;20840;-60
2021/11/02 06:58:34;;;;;;;7.23;2.30;;;6.60;1.00;;;;;;5070955;28;20618;-60
2021/11/02 07:18:02;;;;;;;5.53;2.53;;;6.80;99.90;;;;;;5053566;28;20319;-60
2021/11/02 07:20:36;;;;;;;4.80;2.57;;;6.80;99.90;;;;;;5074980;28;20623;-60
2021/11/02 07:23:15;;;;;;;3.23;2.30;;;6.80;99.90;;;;;;5074638;28;20221;-61
2021/11/02 07:25:50;;;;;;;5.77;2.70;;;6.80;99.90;;;;;;5074163;28;20205;-61
2021/11/02 07:29:15;;;;;;;3.57;2.37;;;6.80;99.90;;;;;;5072953;28;20208;-59
2021/11/02 08:47:09;;;;;;;6.63;1.60;;;8.70;1.00;;;;;;5072943;28;20272;-59
2021/11/02 08:49:41;;;;;;;2.50;1.60;;;8.70;1.00;;;;;;5072235;28;20214;-61
2021/11/02 08:52:09;;;;;;;6.73;1.97;;;8.70;1.00;;;;;;5071577;28;20230;-59
2021/11/02 08:54:36;;;;;;;4.53;1.70;;;8.70;1.00;;;;;;5072642;28;20226;-58
2021/11/02 08:57:04;;;;;;;4.63;1.53;;;8.70;1.00;;;;;;5071623;28;20214;-58
2021/11/02 08:59:33;;;;;;;3.40;1.53;;;8.60;1.00;;;;;;5072016;28;20256;-60
2021/11/02 09:02:02;;;;;;;7.23;1.87;;;8.60;1.00;;;;;;5071987;28;20719;-59
2021/11/02 09:04:33;;;;;;;2.87;1.30;;;8.60;1.00;;;;;;5072826;28;20217;-60
2021/11/02 09:07:02;;;;;;;4.57;1.30;;;8.60;1.00;;;;;;5070623;28;20205;-63
2021/11/02 09:09:34;;;;;;;4.20;1.60;;;8.60;1.00;;;;;;5071660;28;20213;-62
2021/11/02 09:12:03;;;;;;;5.13;1.80;;;8.50;1.00;;;;;;5073240;28;20217;-63
2021/11/02 09:14:33;;;;;;;2.20;1.40;;;8.60;1.00;;;;;;5071863;28;20650;-60
2021/11/02 09:17:00;;;;;;;3.00;1.90;;;8.60;1.00;;;;;;5071736;28;20212;-60
2021/11/02 09:19:28;;;;;;;6.90;2.43;;;8.60;1.00;;;;;;5071872;28;20308;-61
2021/11/02 09:21:55;;;;;;;4.47;1.20;;;8.60;1.00;;;;;;5072536;28;20339;-62
2021/11/02 09:24:22;;;;;;;4.77;1.73;;;8.60;1.00;;;;;;5071701;28;20667;-62
2021/11/02 09:26:51;;;;;;;3.13;1.30;;;8.70;1.00;;;;;;5070167;28;20673;-62
2021/11/02 09:29:19;;;;;;;4.53;1.37;;;8.80;1.00;;;;;;5071464;28;20207;-62
2021/11/02 09:31:46;;;;;;;4.10;1.33;;;8.80;1.00;;;;;;5072144;28;20673;-59
2021/11/02 09:34:13;;;;;;;3.90;1.40;;;8.80;1.00;;;;;;5071743;28;20234;-57
2021/11/02 09:36:44;;;;;;;2.93;1.33;;;8.80;1.00;;;;;;5071374;28;20211;-59
2021/11/02 09:39:13;;;;;;;7.73;1.57;;;8.90;1.00;;;;;;5071529;28;20668;-58
2021/11/02 09:41:59;;;;;;;1.80;1.30;;;8.90;1.00;;;;;;5072047;28;20258;-60
2021/11/02 09:45:04;;;;;;;3.17;1.33;;;8.90;1.00;;;;;;5072251;28;20211;-58
2021/11/02 09:48:32;;;;;;;2.33;1.20;;;9.00;1.00;;;;;;5072052;28;20614;-61
2021/11/02 09:51:32;;;;;;;2.93;1.13;;;9.10;1.00;;;;;;5069647;28;20218;-56
2021/11/02 09:54:28;;;;;;;4.27;1.30;;;9.20;1.00;;;;;;5071796;28;20575;-58
2021/11/02 09:57:19;;;;;;;2.60;1.07;;;9.30;1.00;;;;;;5071319;28;20208;-59
2021/11/02 09:59:57;;;;;;;7.53;1.60;;;9.40;1.00;;;;;;5071889;28;20212;-60
2021/11/02 10:02:57;;;;;;;3.33;1.20;;;9.60;1.00;;;;;;5069929;28;20277;-58
2021/11/02 10:05:45;;;;;;;5.93;1.20;;;9.60;1.00;;;;;;5070444;28;20259;-60
2021/11/02 10:08:33;;;;;;;3.73;1.10;;;9.60;1.00;;;;;;5070906;28;20214;-61
2021/11/02 10:11:04;;;;;;;5.27;1.30;;;9.70;1.00;;;;;;5071578;28;20209;-65
2021/11/02 10:13:47;;;;;;;3.97;1.40;;;9.80;1.00;;;;;;5070138;28;20232;-62
2021/11/02 10:16:32;;;;;;;3.07;1.43;;;9.80;1.00;;;;;;5070461;28;20211;-60
2021/11/02 10:19:39;;;;;;;4.10;1.00;;;9.80;1.00;;;;;;5069858;28;20279;-59
2021/11/02 10:22:25;;;;;;;1.33;1.10;;;9.90;1.00;;;;;;5070419;28;20230;-60
2021/11/02 10:25:07;;;;;;;1.77;1.00;;;9.90;1.00;;;;;;5071320;28;20553;-62
2021/11/02 10:27:54;;;;;;;4.57;1.30;;;10.00;1.00;;;;;;5071138;28;20681;-62
2021/11/02 10:30:33;;;;;;;2.33;1.07;;;10.10;1.00;;;;;;5071523;28;20641;-62
2021/11/02 10:33:04;;;;;;;5.67;1.10;;;10.30;1.00;;;;;;5071809;28;20312;-62
2021/11/02 10:35:37;;;;;;;4.20;1.57;;;10.20;1.00;;;;;;5071364;28;20200;-64
2021/11/02 10:38:09;;;;;;;4.63;1.20;;;10.30;1.00;;;;;;5070097;28;20235;-59
2021/11/02 10:40:45;;;;;;;7.03;1.33;;;10.40;1.00;;;;;;5071659;28;20217;-61
2021/11/02 10:43:39;;;;;;;3.67;1.40;;;10.30;1.00;;;;;;5070161;28;20227;-60
2021/11/02 10:46:09;;;;;;;4.20;1.20;;;10.30;1.00;;;;;;5068781;28;20200;-60
2021/11/02 10:48:41;;;;;;;3.43;1.17;;;10.20;1.00;;;;;;5071273;28;20219;-61
2021/11/02 10:51:10;;;;;;;2.10;1.17;;;10.20;1.00;;;;;;5071512;28;20291;-55
2021/11/02 10:53:39;;;;;;;5.50;1.40;;;10.10;1.00;;;;;;5071366;28;20600;-57
2021/11/02 10:56:11;;;;;;;6.27;1.63;;;10.10;1.00;;;;;;5070852;28;20239;-55
2021/11/02 10:58:43;;;;;;;4.77;1.10;;;10.20;1.00;;;;;;5071113;28;20259;-59
2021/11/02 11:01:13;;;;;;;3.73;1.13;;;10.20;1.00;;;;;;5072232;28;20299;-60
2021/11/02 11:03:41;;;;;;;2.07;1.30;;;10.20;1.00;;;;;;5072060;28;20232;-58
2021/11/02 11:06:09;;;;;;;3.90;1.10;;;10.30;1.00;;;;;;5071580;28;20201;-60
2021/11/02 11:08:38;;;;;;;4.67;1.20;;;10.40;1.00;;;;;;5071673;28;20224;-61
2021/11/02 11:11:07;;;;;;;1.90;0.93;;;10.40;1.00;;;;;;5071343;28;20677;-59
2021/11/02 11:13:34;;;;;;;2.80;1.30;;;10.40;1.00;;;;;;5071302;28;20243;-59
2021/11/02 11:16:09;;;;;;;3.50;1.07;;;10.50;1.00;;;;;;5070991;28;20201;-59
2021/11/02 11:18:52;;;;;;;2.23;0.90;;;10.50;1.00;;;;;;5071164;28;20261;-56
2021/11/02 11:21:19;;;;;;;3.07;1.00;;;10.60;1.00;;;;;;5071201;28;20258;-54
2021/11/02 11:23:52;;;;;;;2.03;1.17;;;10.70;1.00;;;;;;5070778;28;20216;-55
2021/11/02 11:26:23;;;;;;;4.83;0.90;;;10.70;1.00;;;;;;5070591;28;20665;-57
2021/11/02 11:28:53;;;;;;;1.87;0.80;;;10.70;1.00;;;;;;5071293;28;20190;-54
2021/11/02 11:31:21;;;;;;;1.77;0.90;;;10.60;1.00;;;;;;5071201;28;20278;-55
2021/11/02 11:33:51;;;;;;;1.30;0.90;;;10.50;1.00;;;;;;5070820;28;20577;-56
2021/11/02 11:36:20;;;;;;;2.37;0.97;;;10.40;1.00;;;;;;5070105;28;20209;-59
2021/11/02 11:38:48;;;;;;;2.53;0.90;;;10.30;1.00;;;;;;5071014;28;20213;-56
2021/11/02 11:41:15;;;;;;;1.70;0.87;;;10.20;1.00;;;;;;5070731;28;20669;-59
2021/11/02 11:43:43;;;;;;;1.70;0.67;;;10.30;1.00;;;;;;5070542;28;20251;-59
2021/11/02 11:46:12;;;;;;;2.20;0.73;;;10.50;1.00;;;;;;5070134;28;20247;-58
2021/11/02 11:48:42;;;;;;;2.37;0.93;;;10.60;1.00;;;;;;5070506;28;20254;-58
2021/11/02 11:51:20;;;;;;;2.43;0.90;;;10.60;1.00;;;;;;5074370;28;20205;-58
2021/11/02 11:53:48;;;;;;;3.10;1.00;;;10.70;1.00;;;;;;5073438;28;20311;-56
2021/11/02 11:56:17;;;;;;;1.47;0.97;;;10.80;1.00;;;;;;5073564;28;20209;-58
2021/11/02 11:58:50;;;;;;;1.50;1.03;;;10.90;1.00;;;;;;5074344;28;20216;-59
2021/11/02 12:01:28;;;;;;;2.80;1.00;;;10.90;1.00;;;;;;5074068;28;20223;-57
2021/11/02 12:03:58;;;;;;;3.10;1.10;;;11.00;1.00;;;;;;5074255;28;20775;-59
2021/11/02 12:06:29;;;;;;;3.00;1.10;;;10.90;1.00;;;;;;5073595;28;20685;-58
2021/11/02 12:09:00;;;;;;;2.37;1.30;;;10.90;1.00;;;;;;5074317;28;20208;-59
2021/11/02 12:11:31;;;;;;;2.90;1.20;;;10.80;1.00;;;;;;5074147;28;20208;-58
2021/11/02 12:14:06;;;;;;;2.47;1.30;;;10.70;1.00;;;;;;5074190;28;20848;-59
2021/11/02 12:16:37;;;;;;;2.20;1.20;;;10.50;1.00;;;;;;5073458;28;20588;-57
2021/11/02 12:19:06;;;;;;;1.73;1.00;;;10.60;1.00;;;;;;5074204;28;20208;-59
2021/11/02 12:21:37;;;;;;;2.80;1.07;;;10.60;1.00;;;;;;5073870;28;20239;-60
2021/11/02 12:24:06;;;;;;;0.97;0.73;;;10.80;1.00;;;;;;5074001;28;20209;-59
2021/11/02 12:26:41;;;;;;;3.90;0.80;;;10.90;1.00;;;;;;5073264;28;20212;-56
2021/11/02 12:29:11;;;;;;;1.60;0.80;;;10.90;1.00;;;;;;5073974;28;20208;-58
2021/11/02 12:31:39;;;;;;;2.27;0.70;;;10.80;1.00;;;;;;5073788;28;20213;-60
2021/11/02 12:34:13;;;;;;;0.90;0.67;;;10.90;1.00;;;;;;5073603;28;20221;-60
2021/11/02 12:36:48;;;;;;;2.00;0.60;;;10.80;1.00;;;;;;5072906;28;20208;-59
2021/11/02 12:39:17;;;;;;;2.00;0.70;;;10.90;1.00;;;;;;5073645;28;20758;-58
2021/11/02 12:41:52;;;;;;;3.07;0.70;;;11.00;1.00;;;;;;5073704;28;20216;-58
2021/11/02 12:44:25;;;;;;;2.10;0.73;;;11.00;1.00;;;;;;5073453;28;20216;-58
2021/11/02 12:46:52;;;;;;;0.97;0.70;;;11.00;1.00;;;;;;5073100;28;20228;-60
2021/11/02 12:49:28;;;;;;;0.77;0.60;;;10.90;1.00;;;;;;5073529;28;20205;-61
2021/11/02 12:52:04;;;;;;;5.10;0.90;;;11.00;1.00;;;;;;5073535;28;20254;-62
2021/11/02 12:54:31;;;;;;;1.30;0.70;;;11.00;1.00;;;;;;5073321;28;20232;-59
2021/11/02 12:57:03;;;;;;;1.80;0.60;;;11.10;1.00;;;;;;5072735;28;20216;-60
2021/11/02 12:59:37;;;;;;;2.13;0.90;;;11.10;1.00;;;;;;5073184;28;20205;-60
2021/11/02 13:02:19;;;;;;;1.37;0.77;;;10.90;1.00;;;;;;5071933;28;20235;-59
2021/11/02 13:04:49;;;;;;;0.60;0.60;;;11.00;1.00;;;;;;5072883;28;20212;-59
2021/11/02 13:07:18;;;;;;;0.80;0.63;;;10.90;1.00;;;;;;5072879;28;20208;-58
2021/11/02 13:09:48;;;;;;;1.23;0.80;;;10.90;1.00;;;;;;5072558;28;20676;-60
2021/11/02 13:12:15;;;;;;;1.40;0.77;;;11.00;1.00;;;;;;5072867;28;20236;-58
2021/11/02 13:14:43;;;;;;;2.27;1.20;;;10.80;1.00;;;;;;5072556;28;20739;-57
2021/11/02 13:17:13;;;;;;;1.23;0.90;;;10.80;1.00;;;;;;5072588;28;20205;-57
2021/11/02 13:19:41;;;;;;;2.77;1.10;;;10.60;1.00;;;;;;5072719;28;20204;-59
2021/11/02 13:22:13;;;;;;;3.00;1.20;;;10.60;1.00;;;;;;5072468;28;20740;-59
2021/11/02 13:24:54;;;;;;;1.50;1.00;;;10.70;1.00;;;;;;5072193;28;20204;-56
2021/11/02 13:27:30;;;;;;;1.13;0.80;;;10.70;1.00;;;;;;5072910;28;20239;-59
2021/11/02 13:29:57;;;;;;;1.70;1.10;;;10.70;1.00;;;;;;5072895;28;20197;-60
2021/11/02 13:32:24;;;;;;;1.83;1.13;;;10.80;1.00;;;;;;5072279;28;20233;-61
2021/11/02 13:34:51;;;;;;;2.73;0.90;;;10.80;1.00;;;;;;5071983;28;20221;-60
2021/11/02 13:37:18;;;;;;;1.70;1.00;;;10.70;1.00;;;;;;5071532;28;20613;-61
2021/11/02 13:39:54;;;;;;;1.73;1.10;;;10.70;1.00;;;;;;5072246;28;20670;-61
2021/11/02 13:42:45;;;;;;;0.80;0.67;;;10.80;1.00;;;;;;5071983;28;20229;-59
2021/11/02 13:45:16;;;;;;;1.37;0.90;;;10.80;1.00;;;;;;5071807;28;20283;-59
2021/11/02 13:47:43;;;;;;;1.87;0.70;;;10.80;1.00;;;;;;5071693;28;20787;-59
2021/11/02 13:50:10;;;;;;;1.10;0.87;;;10.80;1.00;;;;;;5072174;28;20584;-59
2021/11/02 13:52:37;;;;;;;1.10;0.77;;;10.80;1.00;;;;;;5071991;28;20644;-60
2021/11/02 13:55:06;;;;;;;3.83;1.10;;;10.70;1.00;;;;;;5071452;28;20278;-60
2021/11/02 13:57:33;;;;;;;2.83;0.80;;;10.80;1.00;;;;;;5071887;28;20201;-60
2021/11/02 13:59:59;;;;;;;2.47;1.20;;;10.70;1.00;;;;;;5071372;28;20670;-60
2021/11/02 14:02:29;;;;;;;3.10;0.90;;;10.70;1.00;;;;;;5072147;28;20260;-60
2021/11/02 14:04:57;;;;;;;1.30;0.90;;;10.70;1.00;;;;;;5071309;28;20263;-60
2021/11/02 14:07:26;;;;;;;0.80;0.70;;;10.80;1.00;;;;;;5071409;28;20209;-60
2021/11/02 14:09:55;;;;;;;0.90;0.70;;;11.00;1.00;;;;;;5071952;28;20205;-60
2021/11/02 14:12:25;;;;;;;0.90;0.80;;;11.10;1.00;;;;;;5071257;28;20234;-58
2021/11/02 14:14:52;;;;;;;2.90;1.00;;;11.20;1.00;;;;;;5071331;28;20228;-58
2021/11/02 14:17:20;;;;;;;2.10;1.00;;;11.20;1.00;;;;;;5071253;28;20262;-61
2021/11/02 14:19:47;;;;;;;0.90;0.80;;;11.10;1.00;;;;;;5071874;28;20283;-62
2021/11/02 14:22:15;;;;;;;2.70;0.80;;;11.00;1.00;;;;;;5071382;28;20286;-61
2021/11/02 14:24:43;;;;;;;1.37;0.73;;;10.80;1.00;;;;;;5070588;28;20197;-61
2021/11/02 14:27:11;;;;;;;1.80;1.20;;;10.80;1.00;;;;;;5071075;28;20242;-61
2021/11/02 14:29:50;;;;;;;1.33;0.70;;;10.70;1.00;;;;;;5068427;28;20665;-60
2021/11/02 14:32:46;;;;;;;0.70;0.70;;;10.70;1.00;;;;;;5067892;28;20284;-60
2021/11/02 14:35:33;;;;;;;1.03;1.00;;;10.70;1.00;;;;;;5070744;28;20256;-59
2021/11/02 14:38:03;;;;;;;1.23;1.00;;;10.70;1.00;;;;;;5071354;28;20246;-59
2021/11/02 14:40:31;;;;;;;3.10;1.00;;;10.70;1.00;;;;;;5071794;28;20291;-59
2021/11/02 14:42:59;;;;;;;2.37;1.00;;;10.60;1.00;;;;;;5071355;28;20232;-59
2021/11/02 14:45:40;;;;;;;2.70;0.90;;;10.60;1.00;;;;;;5071108;28;20209;-61
2021/11/02 14:48:42;;;;;;;2.17;0.90;;;10.60;1.00;;;;;;5071069;28;20221;-57
2021/11/02 14:51:27;;;;;;;2.83;0.93;;;10.40;1.00;;;;;;5071642;28;20212;-58
2021/11/02 14:53:56;;;;;;;3.83;1.00;;;10.40;1.00;;;;;;5071141;28;20896;-58
2021/11/02 14:56:30;;;;;;;1.90;1.20;;;10.40;1.00;;;;;;5069253;28;20224;-59
2021/11/02 14:58:57;;;;;;;1.20;1.10;;;10.30;1.00;;;;;;5069897;28;20232;-58
2021/11/02 15:02:06;;;;;;;2.00;0.90;;;10.30;1.00;;;;;;5071447;28;20205;-58
2021/11/02 15:04:33;;;;;;;5.67;1.03;;;10.20;1.00;;;;;;5070861;28;20299;-59
2021/11/02 15:07:02;;;;;;;2.67;1.20;;;10.20;1.00;;;;;;5070993;28;20595;-59
2021/11/02 15:09:31;;;;;;;1.40;1.10;;;10.20;1.00;;;;;;5071163;28;20211;-59
2021/11/02 15:11:58;;;;;;;1.40;1.20;;;10.10;1.00;;;;;;5071443;28;20813;-59
2021/11/02 15:14:27;;;;;;;4.57;1.40;;;10.10;1.00;;;;;;5071222;28;20216;-59
2021/11/02 15:16:57;;;;;;;2.43;1.27;;;10.10;1.00;;;;;;5070696;28;20260;-57
2021/11/02 15:19:26;;;;;;;1.97;1.10;;;10.10;1.00;;;;;;5070871;28;20205;-58
2021/11/02 15:21:54;;;;;;;2.47;1.30;;;10.00;1.00;;;;;;5071140;28;20717;-58
2021/11/02 15:24:22;;;;;;;1.37;1.27;;;9.90;1.00;;;;;;5072407;28;20209;-61
2021/11/02 15:26:53;;;;;;;2.00;1.50;;;9.90;1.00;;;;;;5074516;28;20208;-61
2021/11/02 15:29:22;;;;;;;2.23;1.37;;;9.80;1.00;;;;;;5075222;28;20216;-60
2021/11/02 15:32:06;;;;;;;2.10;1.50;;;9.80;1.00;;;;;;5074660;28;20621;-60
2021/11/02 15:34:48;;;;;;;2.83;1.47;;;9.70;1.00;;;;;;5074844;28;20588;-59
2021/11/02 15:37:19;;;;;;;2.03;1.30;;;9.60;1.00;;;;;;5074597;28;20211;-59
2021/11/02 15:39:49;;;;;;;2.33;1.57;;;9.60;1.00;;;;;;5074983;28;20903;-62
2021/11/02 15:42:28;;;;;;;1.17;0.97;;;9.60;1.00;;;;;;5074697;28;20641;-63
2021/11/02 15:44:57;;;;;;;5.47;1.70;;;9.50;1.00;;;;;;5074574;28;20212;-61
2021/11/02 15:47:26;;;;;;;2.93;1.40;;;9.50;1.00;;;;;;5074630;28;20214;-60
2021/11/02 15:50:02;;;;;;;2.83;1.70;;;9.40;1.00;;;;;;5074763;28;20209;-60
2021/11/02 15:52:31;;;;;;;4.30;1.67;;;9.40;1.00;;;;;;5073532;28;20807;-60
2021/11/02 15:55:02;;;;;;;2.43;1.37;;;9.40;1.00;;;;;;5074251;28;20213;-61
2021/11/02 15:57:28;;;;;;;5.10;1.53;;;9.30;1.00;;;;;;5074588;28;20205;-61
2021/11/02 16:00:03;;;;;;;2.40;1.30;;;9.30;1.00;;;;;;5074516;28;20209;-61
2021/11/02 16:02:39;;;;;;;3.03;1.80;;;9.20;1.00;;;;;;5074427;28;20631;-61
2021/11/02 16:05:09;;;;;;;1.53;0.80;;;9.20;1.00;;;;;;5073646;28;20207;-64
2021/11/02 16:07:36;;;;;;;2.53;1.03;;;9.10;1.00;;;;;;5074272;28;20222;-62
2021/11/02 16:10:05;;;;;;;1.87;1.20;;;9.10;1.00;;;;;;5074495;28;20208;-62
2021/11/02 16:12:35;;;;;;;1.20;0.93;;;9.10;1.00;;;;;;5074399;28;20224;-65
2021/11/02 16:15:10;;;;;;;1.70;0.90;;;9.00;1.00;;;;;;5073874;28;20217;-61
2021/11/02 16:17:44;;;;;;;0.60;0.60;;;9.00;1.00;;;;;;5073841;28;20242;-62
2021/11/02 16:20:17;;;;;;;1.77;1.30;;;8.90;1.00;;;;;;5074368;28;20206;-62
2021/11/02 16:22:49;;;;;;;1.30;1.10;;;8.80;1.00;;;;;;5074021;28;20224;-61
2021/11/02 16:25:16;;;;;;;1.93;1.30;;;8.70;1.00;;;;;;5073839;28;20234;-62
2021/11/02 16:27:53;;;;;;;3.77;1.30;;;8.70;1.00;;;;;;5073989;28;20207;-61
2021/11/02 16:30:21;;;;;;;1.17;1.07;;;8.70;66.60;;;;;;5074062;28;20209;-61
2021/11/02 16:32:51;;;;;;;1.80;1.13;;;8.60;99.90;;;;;;5073797;28;20226;-61
2021/11/02 16:35:33;;;;;;;2.00;1.20;;;8.60;99.90;;;;;;5073374;28;20222;-62
2021/11/02 16:38:24;;;;;;;1.47;1.30;;;8.50;99.90;;;;;;5073641;28;20240;-61
2021/11/02 16:40:53;;;;;;;2.17;1.30;;;8.60;99.90;;;;;;5073850;28;20212;-62
2021/11/02 16:43:29;;;;;;;1.30;1.20;;;8.50;99.90;;;;;;5073777;28;20257;-61
2021/11/02 16:45:56;;;;;;;2.13;1.50;;;8.40;99.90;;;;;;5073273;28;20209;-62
2021/11/02 16:48:40;;;;;;;3.03;1.47;;;8.40;99.90;;;;;;5073624;28;20211;-60
2021/11/02 16:51:08;;;;;;;2.77;1.40;;;8.40;99.90;;;;;;5073897;28;20190;-61
2021/11/02 16:53:35;;;;;;;3.43;1.83;;;8.30;99.90;;;;;;5073995;28;20275;-60
2021/11/02 16:56:06;;;;;;;4.53;1.87;;;8.30;99.90;;;;;;5073515;28;20654;-62
2021/11/02 16:58:35;;;;;;;1.83;1.73;;;8.30;99.90;;;;;;5073563;28;20207;-65
2021/11/02 17:01:22;;;;;;;2.23;1.73;;;8.30;99.90;;;;;;5073382;28;20676;-64
2021/11/02 17:03:51;;;;;;;3.40;1.70;;;8.30;99.90;;;;;;5073291;28;20588;-62
2021/11/02 17:06:20;;;;;;;1.80;1.60;;;8.20;99.90;;;;;;5072579;28;20198;-62
2021/11/02 17:08:51;;;;;;;2.23;1.90;;;8.30;99.90;;;;;;5073235;28;20208;-62
2021/11/02 17:11:22;;;;;;;1.93;1.73;;;8.20;99.90;;;;;;5073269;28;20300;-62
2021/11/02 17:13:50;;;;;;;2.33;2.00;;;8.20;99.90;;;;;;5072803;28;20702;-62
2021/11/02 17:16:19;;;;;;;3.47;2.17;;;8.20;99.90;;;;;;5072328;28;20224;-62
2021/11/02 17:18:52;;;;;;;2.43;1.73;;;8.20;99.90;;;;;;5073272;28;20213;-62
2021/11/02 17:21:22;;;;;;;2.90;2.33;;;8.20;99.90;;;;;;5073109;28;20209;-62
2021/11/02 17:23:49;;;;;;;4.80;2.30;;;8.10;99.90;;;;;;5073317;28;20228;-62
2021/11/02 17:26:17;;;;;;;2.93;2.47;;;8.10;99.90;;;;;;5072151;28;20205;-62
2021/11/02 17:28:47;;;;;;;2.30;2.10;;;8.10;99.90;;;;;;5073093;28;20209;-62
2021/11/02 17:31:16;;;;;;;2.00;1.80;;;8.10;99.90;;;;;;5073219;28;20569;-62
2021/11/02 17:33:43;;;;;;;3.60;1.70;;;8.10;99.90;;;;;;5072622;28;20225;-61